0C5 weather

Canadian Lakes Airport
Mecosta, Michigan, United States

Public forecast

Using degrees Fahrenheit for public forecast. Weather courtesy of forecast.io.

METAR (pilot weather report)

Closest report is Roben Hood Airport, 13.1 nm (24.2 km) NW. Retrieved 2019/09/19 16:39 UTC (0 seconds ago):

KRQB 191639Z AUTO 20006KT 10SM CLR 24/13 A3013 RMK AO2 T02370133

TAF (pilot weather forecast)

Closest forecast is Gerald R. Ford International Airport, 43.1 nm (79.8 km) SSW. Retrieved 2019/09/19 12:24 UTC (4 hours ago):

TAF KGRR 191121Z 1912/2012 11005KT P6SM BKN220 FM191800 22008KT P6SM SCT250 FM200200 12005KT P6SM FEW250